Weather at Groton New London Airport

Public forecast

Using degrees Fahrenheit for public forecast. Weather courtesy of forecast.io.

Current aviation weather report (METAR) for Groton New London Airport

Retrieved 2020/09/29 23:08 UTC (12 minutes ago):

KGON 292308Z 16006KT 10SM BKN023 OVC100 21/19 A2982 RMK AO2 T02110189

Aviation forecast (TAF) for Groton New London Airport

Retrieved 2020/09/29 18:42 UTC (5 hours ago):

TAF KGON 291741Z 2918/3018 12010KT 5SM -SHRA BR BKN020 OVC040 FM292200 14008KT 6SM SHRA BR BKN008 OVC015 FM300300 16010KT 3SM SHRA BR BKN008 OVC010 FM300700 16018G27KT 3SM +SHRA BR OVC005 WS020/19060KT FM301200 23014G24KT 5SM SHRA BR SCT005 OVC010 FM301600 26016G26KT P6SM SCT040 BKN250